createdAt,value
2022-10-17T00:01:29.402Z,74.25
2022-10-17T00:03:59.332Z,74.06
2022-10-17T00:06:27.711Z,74.55
2022-10-17T00:08:56.201Z,74.18
2022-10-17T00:11:24.979Z,74.60
2022-10-17T00:13:55.865Z,73.90
2022-10-17T00:16:26.955Z,74.67
2022-10-17T00:18:56.110Z,73.70
2022-10-17T00:21:25.308Z,74.99
2022-10-17T00:23:54.399Z,74.51
2022-10-17T00:26:23.251Z,74.50
2022-10-17T00:28:52.916Z,74.81
2022-10-17T00:31:22.993Z,75.14
2022-10-17T00:33:52.072Z,74.21
2022-10-17T00:36:22.418Z,73.81
2022-10-17T00:38:54.068Z,74.63
2022-10-17T00:41:25.014Z,73.82
2022-10-17T00:44:00.486Z,75.09
2022-10-17T00:46:31.260Z,74.32
2022-10-17T00:49:05.706Z,75.12
2022-10-17T00:51:38.335Z,74.34
2022-10-17T00:54:09.131Z,74.63
2022-10-17T00:56:40.117Z,74.28
2022-10-17T00:59:11.308Z,74.60
2022-10-17T01:01:41.618Z,75.11
2022-10-17T01:04:10.287Z,75.22
2022-10-17T01:06:41.074Z,74.47
2022-10-17T01:09:10.307Z,74.80
2022-10-17T01:11:45.640Z,74.98
2022-10-17T01:14:22.717Z,75.05
2022-10-17T01:16:59.173Z,75.09
2022-10-17T01:19:46.286Z,74.65
2022-10-17T01:22:23.462Z,75.73
2022-10-17T01:25:18.480Z,75.59
2022-10-17T01:28:16.972Z,75.23
2022-10-17T01:30:59.214Z,75.79
2022-10-17T01:33:53.613Z,75.17
2022-10-17T01:36:38.278Z,75.23
2022-10-17T01:39:17.133Z,74.98
2022-10-17T01:41:52.384Z,75.28
2022-10-17T01:44:27.367Z,75.30
2022-10-17T01:47:04.514Z,75.92
2022-10-17T01:49:37.341Z,75.48
2022-10-17T01:52:11.348Z,75.44
2022-10-17T01:54:44.299Z,75.59
2022-10-17T01:57:20.807Z,75.85
2022-10-17T01:59:53.609Z,76.07
2022-10-17T02:02:24.425Z,76.02
2022-10-17T02:04:55.189Z,75.52
2022-10-17T02:07:23.976Z,75.51
2022-10-17T02:09:52.814Z,75.71
2022-10-17T02:12:38.071Z,75.27
2022-10-17T02:15:28.436Z,76.01
2022-10-17T02:18:08.308Z,75.71
2022-10-17T02:20:45.960Z,75.13
2022-10-17T02:23:23.462Z,75.18
2022-10-17T02:26:01.624Z,75.64
2022-10-17T02:28:36.652Z,76.27
2022-10-17T02:31:09.226Z,75.42
2022-10-17T02:33:44.173Z,76.29
2022-10-17T02:36:17.799Z,75.87
2022-10-17T02:38:46.949Z,75.69
2022-10-17T02:41:19.413Z,75.08
2022-10-17T02:43:49.552Z,76.07
2022-10-17T02:46:23.332Z,76.15
2022-10-17T02:48:55.223Z,75.92
2022-10-17T02:51:29.702Z,75.91
2022-10-17T02:54:07.614Z,75.77
2022-10-17T02:56:42.693Z,75.96
2022-10-17T02:59:15.563Z,76.60
2022-10-17T03:01:45.069Z,76.33
2022-10-17T03:04:15.295Z,75.98
2022-10-17T03:06:47.432Z,75.96
2022-10-17T03:09:16.355Z,76.41
2022-10-17T03:11:44.898Z,75.96
2022-10-17T03:14:13.296Z,75.73
2022-10-17T03:16:42.773Z,76.22
2022-10-17T03:19:11.774Z,76.72
2022-10-17T03:21:40.923Z,76.70
2022-10-17T03:24:09.734Z,76.42
2022-10-17T03:26:38.168Z,76.79
2022-10-17T03:29:06.784Z,76.66
2022-10-17T03:31:35.771Z,77.22
2022-10-17T03:34:04.389Z,76.79
2022-10-17T03:36:33.075Z,76.91
2022-10-17T03:39:02.812Z,76.28
2022-10-17T03:41:31.345Z,76.63
2022-10-17T03:44:00.713Z,77.18
2022-10-17T03:46:36.960Z,76.56
2022-10-17T03:49:06.334Z,76.32
2022-10-17T03:51:35.733Z,76.67
2022-10-17T03:54:07.966Z,76.90
2022-10-17T03:56:36.893Z,76.31
2022-10-17T03:59:11.212Z,77.24
2022-10-17T04:01:48.880Z,76.74
2022-10-17T04:04:17.470Z,76.82
2022-10-17T04:06:46.457Z,76.67
2022-10-17T04:09:15.455Z,77.32
2022-10-17T04:12:04.749Z,76.42
2022-10-17T04:14:34.128Z,76.77
2022-10-17T04:17:03.326Z,76.64
2022-10-17T04:19:33.013Z,76.53
2022-10-17T04:22:02.657Z,77.03
2022-10-17T04:24:31.980Z,76.52
2022-10-17T04:27:19.515Z,76.81
2022-10-17T04:29:48.667Z,76.59
2022-10-17T04:32:19.717Z,77.59
2022-10-17T04:34:55.825Z,77.51
2022-10-17T04:37:25.152Z,77.34
2022-10-17T04:39:55.446Z,76.67
2022-10-17T04:42:24.811Z,76.74
2022-10-17T04:44:54.399Z,76.95
2022-10-17T04:47:24.113Z,76.68
2022-10-17T04:49:52.633Z,77.19
2022-10-17T04:52:22.955Z,77.40
2022-10-17T04:54:53.051Z,77.54
2022-10-17T04:57:28.537Z,77.08
2022-10-17T05:00:04.307Z,77.39
2022-10-17T05:02:56.180Z,77.09
2022-10-17T05:05:24.773Z,77.02
2022-10-17T05:07:54.935Z,76.81
2022-10-17T05:10:27.529Z,77.62
2022-10-17T05:12:56.655Z,77.27
2022-10-17T05:15:27.940Z,76.75
2022-10-17T05:17:59.538Z,77.37
2022-10-17T05:20:29.082Z,76.67
2022-10-17T05:23:04.197Z,77.24
2022-10-17T05:25:36.603Z,77.10
2022-10-17T05:28:05.406Z,77.71
2022-10-17T05:30:36.687Z,77.34
2022-10-17T05:33:09.082Z,77.84
2022-10-17T05:35:38.123Z,77.35
2022-10-17T05:38:07.234Z,77.06
2022-10-17T05:40:38.025Z,77.39
2022-10-17T05:43:06.747Z,77.36
2022-10-17T05:45:37.028Z,76.83
2022-10-17T05:48:08.496Z,77.68
2022-10-17T05:50:37.065Z,77.88
2022-10-17T05:53:15.473Z,77.92
2022-10-17T05:55:56.205Z,77.95
2022-10-17T05:58:45.429Z,77.11
2022-10-17T06:01:24.237Z,78.11
2022-10-17T06:03:53.382Z,77.94
2022-10-17T06:06:22.331Z,77.30
2022-10-17T06:08:51.216Z,77.95
2022-10-17T06:11:28.207Z,77.81
2022-10-17T06:14:00.882Z,77.57
2022-10-17T06:16:48.455Z,77.66
2022-10-17T06:19:18.146Z,77.88
2022-10-17T06:21:48.759Z,77.88
2022-10-17T06:24:21.952Z,77.95
2022-10-17T06:26:53.293Z,77.39
2022-10-17T06:29:24.027Z,77.67
2022-10-17T06:31:53.945Z,77.49
2022-10-17T06:34:22.756Z,77.48
2022-10-17T06:36:52.907Z,78.53
2022-10-17T06:39:22.855Z,77.33
2022-10-17T06:42:06.963Z,77.47
2022-10-17T06:44:49.631Z,78.06
2022-10-17T06:47:46.482Z,77.57
2022-10-17T06:50:44.268Z,77.79
2022-10-17T06:53:17.539Z,78.49
2022-10-17T06:56:09.679Z,78.32
2022-10-17T06:58:45.171Z,78.44
2022-10-17T07:01:43.263Z,77.59
2022-10-17T07:04:16.116Z,78.58
2022-10-17T07:06:45.311Z,77.46
2022-10-17T07:09:20.021Z,77.63
2022-10-17T07:11:49.126Z,77.19
2022-10-17T07:14:20.405Z,76.36
2022-10-17T07:16:50.230Z,77.15
2022-10-17T07:19:28.127Z,76.83
2022-10-17T07:21:57.518Z,76.47
2022-10-17T07:24:28.335Z,75.92
2022-10-17T07:27:03.564Z,75.62
2022-10-17T07:29:32.241Z,74.85
2022-10-17T07:32:10.383Z,74.68
2022-10-17T07:34:39.303Z,74.99
2022-10-17T07:37:10.089Z,75.01
2022-10-17T07:39:41.633Z,74.23
2022-10-17T07:42:11.305Z,74.36
2022-10-17T07:44:40.069Z,73.37
2022-10-17T07:47:08.826Z,72.57
2022-10-17T07:49:42.105Z,72.72
2022-10-17T07:52:11.356Z,71.99
2022-10-17T07:54:40.289Z,71.66
2022-10-17T07:57:09.496Z,71.69
2022-10-17T07:59:38.562Z,72.16
2022-10-17T08:02:09.408Z,71.92
2022-10-17T08:04:38.654Z,72.08
2022-10-17T08:07:21.856Z,71.88
2022-10-17T08:09:51.676Z,71.94
2022-10-17T08:12:20.449Z,71.53
2022-10-17T08:14:50.898Z,71.78
2022-10-17T08:17:19.313Z,71.76
2022-10-17T08:19:48.261Z,71.46
2022-10-17T08:22:16.664Z,71.12
2022-10-17T08:24:46.069Z,71.58
2022-10-17T08:27:14.786Z,71.17
2022-10-17T08:29:47.851Z,71.41
2022-10-17T08:32:16.251Z,70.66
2022-10-17T08:34:44.802Z,70.82
2022-10-17T08:37:13.784Z,70.99
2022-10-17T08:39:43.323Z,70.69
2022-10-17T08:42:31.041Z,70.88
2022-10-17T08:45:10.233Z,71.02
2022-10-17T08:47:42.172Z,70.91
2022-10-17T08:50:15.798Z,70.64
2022-10-17T08:52:48.380Z,69.69
2022-10-17T08:55:22.695Z,69.54
2022-10-17T08:57:51.291Z,66.96
2022-10-17T09:00:21.377Z,65.03
2022-10-17T09:03:06.754Z,63.20
2022-10-17T09:05:45.868Z,61.10
2022-10-17T09:08:35.856Z,60.05
2022-10-17T09:11:15.602Z,58.64
2022-10-17T09:13:55.929Z,57.88
2022-10-17T09:16:45.031Z,56.67
2022-10-17T09:19:19.930Z,55.75
2022-10-17T09:21:52.996Z,54.53
2022-10-17T09:24:28.008Z,53.62
2022-10-17T09:26:57.205Z,52.11
2022-10-17T09:29:36.056Z,52.17
2022-10-17T09:32:15.179Z,51.75
2022-10-17T09:34:43.968Z,51.34
2022-10-17T09:37:15.435Z,50.59
2022-10-17T09:39:44.590Z,50.08
2022-10-17T09:42:15.229Z,50.50
2022-10-17T09:44:51.042Z,50.05
2022-10-17T09:47:29.763Z,49.72
2022-10-17T09:49:59.375Z,50.00
2022-10-17T09:52:33.248Z,50.74
2022-10-17T09:55:05.221Z,51.10
2022-10-17T09:57:53.450Z,51.56
2022-10-17T10:00:24.735Z,51.54
2022-10-17T10:03:10.106Z,52.03
2022-10-17T10:05:39.173Z,52.29
2022-10-17T10:08:16.459Z,52.96
2022-10-17T10:10:45.405Z,53.02
2022-10-17T10:13:20.100Z,53.07
2022-10-17T10:15:49.954Z,53.02
2022-10-17T10:21:08.372Z,53.42
2022-10-17T10:23:39.765Z,52.64
2022-10-17T10:26:21.226Z,52.68
2022-10-17T10:28:57.071Z,52.67
2022-10-17T10:31:31.529Z,52.79
2022-10-17T10:34:13.992Z,53.09
2022-10-17T10:36:50.671Z,53.03
2022-10-17T10:39:33.616Z,52.62
2022-10-17T10:42:05.847Z,53.09
2022-10-17T10:44:37.205Z,53.51
2022-10-17T10:47:16.120Z,53.30
2022-10-17T10:49:45.443Z,53.16
2022-10-17T10:52:23.198Z,53.85
2022-10-17T10:54:59.540Z,54.00
2022-10-17T10:57:32.654Z,53.62
2022-10-17T11:00:11.845Z,53.78
2022-10-17T11:02:46.442Z,53.55
2022-10-17T11:05:21.987Z,53.76
2022-10-17T11:08:00.147Z,53.51
2022-10-17T11:10:37.622Z,53.99
2022-10-17T11:13:11.449Z,53.99
2022-10-17T11:15:46.801Z,53.62
2022-10-17T11:18:22.918Z,54.21
2022-10-17T11:20:58.803Z,54.22
2022-10-17T11:23:32.764Z,53.96
2022-10-17T11:26:07.032Z,54.13
2022-10-17T11:28:35.711Z,53.74
2022-10-17T11:31:08.954Z,53.68
2022-10-17T11:33:45.475Z,54.01
2022-10-17T11:36:16.740Z,54.25
2022-10-17T11:38:50.895Z,53.71
2022-10-17T11:41:24.504Z,53.78
2022-10-17T11:43:54.382Z,53.93
2022-10-17T11:46:27.837Z,53.97
2022-10-17T11:49:14.967Z,54.46
2022-10-17T11:52:04.405Z,54.64
2022-10-17T11:54:38.735Z,54.39
2022-10-17T11:57:34.726Z,54.09
2022-10-17T12:00:22.478Z,54.07
2022-10-17T12:03:12.869Z,53.87
2022-10-17T12:05:49.174Z,54.64
2022-10-17T12:08:30.608Z,54.38
2022-10-17T12:11:12.319Z,54.41
2022-10-17T12:13:54.279Z,53.97
2022-10-17T12:16:45.530Z,54.39
2022-10-17T12:19:33.410Z,54.11
2022-10-17T12:22:19.623Z,54.34
2022-10-17T12:25:01.368Z,54.38
2022-10-17T12:27:41.747Z,53.91
2022-10-17T12:30:25.243Z,53.93
2022-10-17T12:33:21.755Z,54.34
2022-10-17T12:35:51.875Z,54.44
2022-10-17T12:38:23.428Z,54.24
2022-10-17T12:41:00.919Z,53.72
2022-10-17T12:43:56.440Z,54.15
2022-10-17T12:46:59.084Z,54.03
2022-10-17T12:49:47.122Z,54.38
2022-10-17T12:52:22.518Z,54.77
2022-10-17T12:55:10.524Z,54.28
2022-10-17T12:57:56.414Z,54.37
2022-10-17T13:00:31.694Z,54.82
2022-10-17T13:03:12.668Z,54.92
2022-10-17T13:05:45.286Z,55.11
2022-10-17T13:08:20.876Z,55.10
2022-10-17T13:10:53.776Z,54.75
2022-10-17T13:13:26.653Z,55.04
2022-10-17T13:15:55.748Z,55.38
2022-10-17T13:18:26.019Z,55.34
2022-10-17T13:21:01.406Z,55.00
2022-10-17T13:23:34.853Z,54.89
2022-10-17T13:26:12.256Z,55.57
2022-10-17T13:28:41.026Z,55.44
2022-10-17T13:31:34.730Z,55.78
2022-10-17T13:34:06.372Z,55.18
2022-10-17T13:36:35.578Z,55.83
2022-10-17T13:39:16.870Z,55.67
2022-10-17T13:41:45.766Z,55.63
2022-10-17T13:44:19.402Z,55.95
2022-10-17T13:46:47.408Z,56.15
2022-10-17T13:49:25.730Z,56.25
2022-10-17T13:52:00.250Z,55.96
2022-10-17T13:54:40.534Z,56.24
2022-10-17T13:57:20.245Z,56.18
2022-10-17T13:59:51.686Z,56.52
2022-10-17T14:02:23.789Z,56.81
2022-10-17T14:05:16.850Z,56.30
2022-10-17T14:10:41.158Z,56.86
2022-10-17T14:13:22.140Z,57.08
2022-10-17T14:15:51.957Z,56.82
2022-10-17T14:18:26.981Z,56.76
2022-10-17T14:23:44.885Z,56.84
2022-10-17T14:26:16.431Z,57.25
2022-10-17T14:28:49.778Z,57.46
2022-10-17T14:31:25.609Z,57.20
2022-10-17T14:33:54.721Z,57.41
2022-10-17T14:36:33.864Z,57.26
2022-10-17T14:39:05.235Z,57.78
2022-10-17T14:41:44.177Z,57.91
2022-10-17T14:44:23.535Z,57.80
2022-10-17T14:46:57.187Z,57.56
2022-10-17T14:49:37.517Z,57.80
2022-10-17T14:52:31.237Z,57.92
2022-10-17T14:55:22.930Z,58.06
2022-10-17T14:57:51.673Z,58.38
2022-10-17T15:00:23.649Z,58.31
2022-10-17T15:02:53.731Z,58.13
2022-10-17T15:05:23.501Z,58.58
2022-10-17T15:07:53.618Z,58.23
2022-10-17T15:10:33.284Z,58.85
2022-10-17T15:13:26.509Z,58.38
2022-10-17T15:15:53.584Z,58.31
2022-10-17T15:18:22.275Z,58.66
2022-10-17T15:20:59.503Z,58.65
2022-10-17T15:23:35.525Z,58.79
2022-10-17T15:26:08.832Z,58.82
2022-10-17T15:28:37.259Z,59.38
2022-10-17T15:31:06.405Z,58.94
2022-10-17T15:33:36.489Z,59.39
2022-10-17T15:36:16.404Z,59.06
2022-10-17T15:38:45.150Z,59.57
2022-10-17T15:41:14.356Z,59.76
2022-10-17T15:43:43.516Z,59.95
2022-10-17T15:46:15.090Z,59.99
2022-10-17T15:48:44.240Z,59.94
2022-10-17T15:51:12.939Z,60.21
2022-10-17T15:53:42.259Z,60.14
2022-10-17T15:56:23.666Z,60.24
2022-10-17T15:58:52.160Z,60.36
2022-10-17T16:01:25.042Z,60.59
2022-10-17T16:03:54.325Z,60.78
2022-10-17T16:06:26.425Z,61.04
2022-10-17T16:08:55.015Z,61.38
2022-10-17T16:11:30.719Z,61.28
2022-10-17T16:14:02.536Z,61.29
2022-10-17T16:16:35.611Z,61.42
2022-10-17T16:19:06.664Z,61.57
2022-10-17T16:21:37.299Z,61.77
2022-10-17T16:24:06.475Z,61.73
2022-10-17T16:26:35.768Z,62.03
2022-10-17T16:29:04.476Z,62.28
2022-10-17T16:31:43.865Z,62.33
2022-10-17T16:34:14.249Z,62.65
2022-10-17T16:36:43.298Z,62.73
2022-10-17T16:39:11.933Z,62.86
2022-10-17T16:41:41.823Z,63.01
2022-10-17T16:44:14.093Z,62.62
2022-10-17T16:46:43.165Z,62.95
2022-10-17T16:49:12.153Z,62.94
2022-10-17T16:51:40.794Z,63.11
2022-10-17T16:54:09.781Z,63.18
2022-10-17T16:56:38.274Z,63.90
2022-10-17T16:59:06.728Z,63.43
2022-10-17T17:01:37.635Z,63.93
2022-10-17T17:04:08.669Z,63.56
2022-10-17T17:06:37.479Z,63.87
2022-10-17T17:09:08.050Z,64.00
2022-10-17T17:11:38.125Z,64.16
2022-10-17T17:14:09.832Z,64.02
2022-10-17T17:16:45.161Z,64.27
2022-10-17T17:19:16.704Z,64.50
2022-10-17T17:21:49.947Z,64.67
2022-10-17T17:24:21.145Z,64.74
2022-10-17T17:26:53.377Z,65.07
2022-10-17T17:29:23.716Z,64.80
2022-10-17T17:31:52.950Z,64.88
2022-10-17T17:34:22.057Z,65.57
2022-10-17T17:36:51.198Z,65.35
2022-10-17T17:39:20.306Z,65.67
2022-10-17T17:41:49.598Z,65.47
2022-10-17T17:44:18.200Z,65.09
2022-10-17T17:46:47.770Z,65.76
2022-10-17T17:49:16.619Z,65.16
2022-10-17T17:51:46.286Z,66.27
2022-10-17T17:54:16.427Z,65.71
2022-10-17T17:56:45.415Z,65.64
2022-10-17T17:59:16.875Z,66.04
2022-10-17T18:01:46.111Z,66.50
2022-10-17T18:04:16.201Z,66.88
2022-10-17T18:06:44.952Z,66.58
2022-10-17T18:09:13.774Z,67.09
2022-10-17T18:11:42.439Z,67.20
2022-10-17T18:14:13.281Z,67.47
2022-10-17T18:16:45.344Z,67.66
2022-10-17T18:19:14.669Z,67.18
2022-10-17T18:21:43.823Z,67.65
2022-10-17T18:24:12.513Z,67.06
2022-10-17T18:26:43.654Z,67.65
2022-10-17T18:29:12.639Z,67.62
2022-10-17T18:31:50.369Z,68.02
2022-10-17T18:34:19.017Z,67.71
2022-10-17T18:36:47.728Z,67.60
2022-10-17T18:39:19.159Z,68.02
2022-10-17T18:41:47.888Z,68.33
2022-10-17T18:44:17.058Z,68.36
2022-10-17T18:46:49.428Z,67.76
2022-10-17T18:49:23.036Z,68.09
2022-10-17T18:51:52.761Z,68.03
2022-10-17T18:54:23.913Z,67.88
2022-10-17T18:56:53.955Z,68.31
2022-10-17T18:59:22.445Z,68.23
2022-10-17T19:01:51.221Z,68.56
2022-10-17T19:04:19.757Z,68.02
2022-10-17T19:06:48.306Z,69.17
2022-10-17T19:09:17.145Z,68.74
2022-10-17T19:11:45.764Z,68.24
2022-10-17T19:14:14.303Z,68.30
2022-10-17T19:16:46.264Z,68.54
2022-10-17T19:19:19.242Z,68.41
2022-10-17T19:21:48.434Z,68.98
2022-10-17T19:24:20.900Z,68.55
2022-10-17T19:26:52.923Z,69.15
2022-10-17T19:29:23.909Z,69.18
2022-10-17T19:31:53.313Z,69.63
2022-10-17T19:34:24.646Z,69.06
2022-10-17T19:36:55.155Z,69.46
2022-10-17T19:39:24.629Z,69.80
2022-10-17T19:41:55.771Z,69.12
2022-10-17T19:44:24.555Z,70.09
2022-10-17T19:46:53.495Z,69.81
2022-10-17T19:49:22.516Z,70.29
2022-10-17T19:51:51.025Z,69.42
2022-10-17T19:54:19.856Z,69.47
2022-10-17T19:56:48.444Z,69.63
2022-10-17T19:59:17.825Z,69.84
2022-10-17T20:01:46.558Z,69.52
2022-10-17T20:04:15.210Z,69.48
2022-10-17T20:06:44.025Z,69.71
2022-10-17T20:09:16.893Z,69.56
2022-10-17T20:11:48.751Z,69.83
2022-10-17T20:14:17.475Z,70.38
2022-10-17T20:16:50.032Z,70.00
2022-10-17T20:19:19.031Z,69.65
2022-10-17T20:21:50.028Z,70.31
2022-10-17T20:24:18.504Z,70.27
2022-10-17T20:26:46.966Z,70.75
2022-10-17T20:29:19.178Z,70.67
2022-10-17T20:31:50.546Z,70.32
2022-10-17T20:34:20.051Z,69.81
2022-10-17T20:36:49.362Z,70.55
2022-10-17T20:39:19.981Z,69.93
2022-10-17T20:41:48.677Z,70.15
2022-10-17T20:44:17.194Z,70.21
2022-10-17T20:47:00.816Z,70.13
2022-10-17T20:49:32.087Z,70.53
2022-10-17T20:52:06.442Z,70.59
2022-10-17T20:54:34.997Z,70.06
2022-10-17T20:57:05.009Z,70.75
2022-10-17T20:59:35.605Z,70.76
2022-10-17T21:02:05.352Z,70.42
2022-10-17T21:04:45.766Z,70.76
2022-10-17T21:07:15.670Z,70.44
2022-10-17T21:09:45.838Z,71.22
2022-10-17T21:12:21.713Z,70.50
2022-10-17T21:15:03.182Z,70.84
2022-10-17T21:17:32.445Z,71.34
2022-10-17T21:20:01.803Z,71.00
2022-10-17T21:22:30.560Z,71.25
2022-10-17T21:25:01.921Z,71.16
2022-10-17T21:27:30.516Z,71.40
2022-10-17T21:30:00.559Z,71.61
2022-10-17T21:32:47.178Z,70.78
2022-10-17T21:35:19.280Z,71.04
2022-10-17T21:37:47.818Z,71.33
2022-10-17T21:40:16.702Z,71.74
2022-10-17T21:42:47.342Z,71.74
2022-10-17T21:45:25.096Z,71.19
2022-10-17T21:48:12.249Z,71.13
2022-10-17T21:50:41.438Z,71.88
2022-10-17T21:53:09.953Z,71.72
2022-10-17T21:55:38.487Z,71.45
2022-10-17T21:58:06.976Z,72.11
2022-10-17T22:00:35.528Z,71.47
2022-10-17T22:03:08.080Z,71.49
2022-10-17T22:05:37.476Z,72.05
2022-10-17T22:08:06.494Z,72.14
2022-10-17T22:10:38.222Z,72.11
2022-10-17T22:13:06.760Z,71.11
2022-10-17T22:15:35.191Z,72.09
2022-10-17T22:18:04.093Z,71.61
2022-10-17T22:20:34.782Z,71.51
2022-10-17T22:23:03.575Z,72.67
2022-10-17T22:25:32.304Z,72.56
2022-10-17T22:28:01.305Z,72.66
2022-10-17T22:30:29.788Z,71.78
2022-10-17T22:32:59.063Z,72.23
2022-10-17T22:35:28.184Z,71.68
2022-10-17T22:37:56.652Z,71.86
2022-10-17T22:40:25.318Z,72.14
2022-10-17T22:43:04.121Z,72.04
2022-10-17T22:45:32.860Z,72.58
2022-10-17T22:48:01.706Z,72.24
2022-10-17T22:50:30.133Z,72.10
2022-10-17T22:53:00.009Z,72.25
2022-10-17T22:55:28.531Z,72.59
2022-10-17T22:57:57.318Z,72.41
2022-10-17T23:03:02.065Z,72.38
2022-10-17T23:05:30.792Z,73.43
2022-10-17T23:08:02.500Z,72.08
2022-10-17T23:10:30.957Z,72.36
2022-10-17T23:13:02.147Z,72.30
2022-10-17T23:15:30.915Z,72.36
2022-10-17T23:18:01.842Z,73.49
2022-10-17T23:20:31.161Z,72.18
2022-10-17T23:23:00.294Z,71.98
2022-10-17T23:25:28.793Z,72.49
2022-10-17T23:27:57.338Z,73.54
2022-10-17T23:30:29.107Z,73.44
2022-10-17T23:32:57.821Z,73.20
2022-10-17T23:35:27.909Z,73.44
2022-10-17T23:37:56.399Z,72.16
2022-10-17T23:40:24.797Z,72.74
2022-10-17T23:42:53.309Z,72.92
2022-10-17T23:45:22.323Z,72.57
2022-10-17T23:47:51.155Z,72.69
2022-10-17T23:50:22.416Z,72.71
2022-10-17T23:52:51.019Z,72.77
2022-10-17T23:55:28.311Z,72.08
2022-10-17T23:57:56.964Z,72.73
